sensor_id;sensor_type;location;lat;lon;timestamp;P1;durP1;ratioP1;P2;durP2;ratioP2
7233;SDS011;3658;47.992;10.158;2022-12-20T00:01:26;4.03;;;2.90;;
7233;SDS011;3658;47.992;10.158;2022-12-20T00:03:56;2.70;;;2.50;;
7233;SDS011;3658;47.992;10.158;2022-12-20T00:06:24;2.47;;;2.27;;
7233;SDS011;3658;47.992;10.158;2022-12-20T00:08:52;2.93;;;2.63;;
7233;SDS011;3658;47.992;10.158;2022-12-20T00:11:19;2.83;;;2.53;;
7233;SDS011;3658;47.992;10.158;2022-12-20T00:13:48;2.53;;;2.33;;
7233;SDS011;3658;47.992;10.158;2022-12-20T00:16:16;2.83;;;2.53;;
7233;SDS011;3658;47.992;10.158;2022-12-20T00:18:45;2.90;;;2.50;;
7233;SDS011;3658;47.992;10.158;2022-12-20T00:21:12;2.60;;;2.40;;
7233;SDS011;3658;47.992;10.158;2022-12-20T00:23:40;2.77;;;2.50;;
7233;SDS011;3658;47.992;10.158;2022-12-20T00:26:07;2.83;;;2.53;;
7233;SDS011;3658;47.992;10.158;2022-12-20T00:28:36;3.23;;;2.53;;
7233;SDS011;3658;47.992;10.158;2022-12-20T00:31:06;3.57;;;2.73;;
7233;SDS011;3658;47.992;10.158;2022-12-20T00:33:34;3.03;;;2.83;;
7233;SDS011;3658;47.992;10.158;2022-12-20T00:36:03;3.03;;;2.53;;
7233;SDS011;3658;47.992;10.158;2022-12-20T00:38:31;2.50;;;2.30;;
7233;SDS011;3658;47.992;10.158;2022-12-20T00:40:59;2.53;;;2.30;;
7233;SDS011;3658;47.992;10.158;2022-12-20T00:43:26;4.23;;;3.07;;
7233;SDS011;3658;47.992;10.158;2022-12-20T00:45:53;2.53;;;2.30;;
7233;SDS011;3658;47.992;10.158;2022-12-20T00:48:22;2.33;;;2.13;;
7233;SDS011;3658;47.992;10.158;2022-12-20T00:50:49;2.60;;;2.40;;
7233;SDS011;3658;47.992;10.158;2022-12-20T00:53:17;2.53;;;2.33;;
7233;SDS011;3658;47.992;10.158;2022-12-20T00:55:44;2.93;;;2.70;;
7233;SDS011;3658;47.992;10.158;2022-12-20T00:58:12;2.67;;;2.47;;
7233;SDS011;3658;47.992;10.158;2022-12-20T01:00:39;2.90;;;2.60;;
7233;SDS011;3658;47.992;10.158;2022-12-20T01:03:06;3.00;;;2.60;;
7233;SDS011;3658;47.992;10.158;2022-12-20T01:05:35;2.67;;;2.47;;
7233;SDS011;3658;47.992;10.158;2022-12-20T01:08:03;2.63;;;2.43;;
7233;SDS011;3658;47.992;10.158;2022-12-20T01:10:31;2.40;;;2.20;;
7233;SDS011;3658;47.992;10.158;2022-12-20T01:12:58;2.60;;;2.40;;
7233;SDS011;3658;47.992;10.158;2022-12-20T01:15:25;2.63;;;2.43;;
7233;SDS011;3658;47.992;10.158;2022-12-20T01:17:52;2.93;;;2.60;;
7233;SDS011;3658;47.992;10.158;2022-12-20T01:20:19;2.80;;;2.60;;
7233;SDS011;3658;47.992;10.158;2022-12-20T01:22:47;2.47;;;2.27;;
7233;SDS011;3658;47.992;10.158;2022-12-20T01:25:15;2.70;;;2.50;;
7233;SDS011;3658;47.992;10.158;2022-12-20T01:27:42;2.67;;;2.40;;
7233;SDS011;3658;47.992;10.158;2022-12-20T01:30:09;2.97;;;2.67;;
7233;SDS011;3658;47.992;10.158;2022-12-20T01:32:37;3.00;;;2.70;;
7233;SDS011;3658;47.992;10.158;2022-12-20T01:35:04;3.00;;;2.70;;
7233;SDS011;3658;47.992;10.158;2022-12-20T01:37:31;2.47;;;2.27;;
7233;SDS011;3658;47.992;10.158;2022-12-20T01:39:59;2.73;;;2.53;;
7233;SDS011;3658;47.992;10.158;2022-12-20T01:42:26;2.73;;;2.33;;
7233;SDS011;3658;47.992;10.158;2022-12-20T01:44:54;2.80;;;2.50;;
7233;SDS011;3658;47.992;10.158;2022-12-20T01:47:23;2.60;;;2.40;;
7233;SDS011;3658;47.992;10.158;2022-12-20T01:49:52;2.60;;;2.40;;
7233;SDS011;3658;47.992;10.158;2022-12-20T01:52:22;2.97;;;2.50;;
7233;SDS011;3658;47.992;10.158;2022-12-20T01:54:54;2.47;;;2.27;;
7233;SDS011;3658;47.992;10.158;2022-12-20T01:57:28;2.60;;;2.33;;
7233;SDS011;3658;47.992;10.158;2022-12-20T02:00:00;2.47;;;2.17;;
7233;SDS011;3658;47.992;10.158;2022-12-20T02:02:28;2.50;;;2.27;;
7233;SDS011;3658;47.992;10.158;2022-12-20T02:04:57;2.47;;;2.27;;
7233;SDS011;3658;47.992;10.158;2022-12-20T02:07:24;2.70;;;2.23;;
7233;SDS011;3658;47.992;10.158;2022-12-20T02:09:54;2.67;;;2.40;;
7233;SDS011;3658;47.992;10.158;2022-12-20T02:12:24;2.23;;;2.03;;
7233;SDS011;3658;47.992;10.158;2022-12-20T02:14:56;3.30;;;2.27;;
7233;SDS011;3658;47.992;10.158;2022-12-20T02:17:31;2.70;;;2.50;;
7233;SDS011;3658;47.992;10.158;2022-12-20T02:26:24;2.77;;;2.30;;
7233;SDS011;3658;47.992;10.158;2022-12-20T02:29:10;2.97;;;2.57;;
7233;SDS011;3658;47.992;10.158;2022-12-20T02:31:53;2.50;;;2.30;;
7233;SDS011;3658;47.992;10.158;2022-12-20T02:34:28;2.60;;;2.20;;
7233;SDS011;3658;47.992;10.158;2022-12-20T02:36:58;2.60;;;2.30;;
7233;SDS011;3658;47.992;10.158;2022-12-20T02:39:25;2.57;;;2.37;;
7233;SDS011;3658;47.992;10.158;2022-12-20T02:41:56;2.53;;;2.33;;
7233;SDS011;3658;47.992;10.158;2022-12-20T02:44:27;2.40;;;2.20;;
7233;SDS011;3658;47.992;10.158;2022-12-20T02:47:16;2.67;;;2.40;;
7233;SDS011;3658;47.992;10.158;2022-12-20T02:49:46;2.33;;;2.00;;
7233;SDS011;3658;47.992;10.158;2022-12-20T02:52:15;2.23;;;2.03;;
7233;SDS011;3658;47.992;10.158;2022-12-20T02:54:46;2.47;;;2.27;;
7233;SDS011;3658;47.992;10.158;2022-12-20T02:57:14;2.47;;;2.20;;
7233;SDS011;3658;47.992;10.158;2022-12-20T02:59:47;2.33;;;2.13;;
7233;SDS011;3658;47.992;10.158;2022-12-20T03:02:22;2.43;;;2.23;;
7233;SDS011;3658;47.992;10.158;2022-12-20T03:04:49;2.57;;;2.10;;
7233;SDS011;3658;47.992;10.158;2022-12-20T03:07:19;2.30;;;2.10;;
7233;SDS011;3658;47.992;10.158;2022-12-20T03:09:47;3.20;;;2.27;;
7233;SDS011;3658;47.992;10.158;2022-12-20T03:12:14;2.17;;;2.00;;
7233;SDS011;3658;47.992;10.158;2022-12-20T03:14:41;2.33;;;2.13;;
7233;SDS011;3658;47.992;10.158;2022-12-20T03:17:09;1.83;;;1.70;;
7233;SDS011;3658;47.992;10.158;2022-12-20T03:19:37;1.90;;;1.80;;
7233;SDS011;3658;47.992;10.158;2022-12-20T03:22:04;2.40;;;2.20;;
7233;SDS011;3658;47.992;10.158;2022-12-20T03:24:31;2.23;;;1.87;;
7233;SDS011;3658;47.992;10.158;2022-12-20T03:26:58;2.20;;;2.00;;
7233;SDS011;3658;47.992;10.158;2022-12-20T03:29:25;2.53;;;2.30;;
7233;SDS011;3658;47.992;10.158;2022-12-20T03:31:52;2.27;;;2.07;;
7233;SDS011;3658;47.992;10.158;2022-12-20T03:34:19;2.10;;;1.90;;
7233;SDS011;3658;47.992;10.158;2022-12-20T03:36:48;2.73;;;2.20;;
7233;SDS011;3658;47.992;10.158;2022-12-20T03:39:15;2.40;;;2.20;;
7233;SDS011;3658;47.992;10.158;2022-12-20T03:41:42;2.10;;;1.90;;
7233;SDS011;3658;47.992;10.158;2022-12-20T03:44:09;2.53;;;1.90;;
7233;SDS011;3658;47.992;10.158;2022-12-20T03:46:36;2.20;;;2.00;;
7233;SDS011;3658;47.992;10.158;2022-12-20T03:49:03;2.03;;;1.70;;
7233;SDS011;3658;47.992;10.158;2022-12-20T03:51:29;2.17;;;2.00;;
7233;SDS011;3658;47.992;10.158;2022-12-20T03:53:58;2.20;;;2.00;;
7233;SDS011;3658;47.992;10.158;2022-12-20T03:56:25;2.20;;;2.00;;
7233;SDS011;3658;47.992;10.158;2022-12-20T03:58:52;2.37;;;2.17;;
7233;SDS011;3658;47.992;10.158;2022-12-20T04:01:19;2.10;;;1.90;;
7233;SDS011;3658;47.992;10.158;2022-12-20T04:03:48;1.87;;;1.77;;
7233;SDS011;3658;47.992;10.158;2022-12-20T04:06:15;2.03;;;1.83;;
7233;SDS011;3658;47.992;10.158;2022-12-20T04:08:43;1.83;;;1.73;;
7233;SDS011;3658;47.992;10.158;2022-12-20T04:11:11;2.10;;;1.90;;
7233;SDS011;3658;47.992;10.158;2022-12-20T04:13:41;2.27;;;2.00;;
7233;SDS011;3658;47.992;10.158;2022-12-20T04:16:08;2.20;;;2.00;;
7233;SDS011;3658;47.992;10.158;2022-12-20T04:18:35;2.40;;;2.07;;
7233;SDS011;3658;47.992;10.158;2022-12-20T04:21:02;2.17;;;2.00;;
7233;SDS011;3658;47.992;10.158;2022-12-20T04:23:31;2.23;;;2.03;;
7233;SDS011;3658;47.992;10.158;2022-12-20T04:25:58;2.77;;;2.47;;
7233;SDS011;3658;47.992;10.158;2022-12-20T04:28:27;2.30;;;2.10;;
7233;SDS011;3658;47.992;10.158;2022-12-20T04:30:55;2.53;;;2.17;;
7233;SDS011;3658;47.992;10.158;2022-12-20T04:33:22;2.33;;;2.13;;
7233;SDS011;3658;47.992;10.158;2022-12-20T04:35:49;3.20;;;2.40;;
7233;SDS011;3658;47.992;10.158;2022-12-20T04:38:16;2.93;;;2.20;;
7233;SDS011;3658;47.992;10.158;2022-12-20T04:40:43;3.13;;;2.77;;
7233;SDS011;3658;47.992;10.158;2022-12-20T04:43:10;2.20;;;2.00;;
7233;SDS011;3658;47.992;10.158;2022-12-20T04:45:39;2.80;;;2.50;;
7233;SDS011;3658;47.992;10.158;2022-12-20T04:48:06;2.50;;;2.30;;
7233;SDS011;3658;47.992;10.158;2022-12-20T04:50:33;2.43;;;2.20;;
7233;SDS011;3658;47.992;10.158;2022-12-20T04:53:00;3.20;;;2.23;;
7233;SDS011;3658;47.992;10.158;2022-12-20T04:55:44;2.73;;;2.47;;
7233;SDS011;3658;47.992;10.158;2022-12-20T04:58:11;3.77;;;2.03;;
7233;SDS011;3658;47.992;10.158;2022-12-20T05:00:39;8.40;;;2.20;;
7233;SDS011;3658;47.992;10.158;2022-12-20T05:03:06;2.73;;;2.00;;
7233;SDS011;3658;47.992;10.158;2022-12-20T05:05:33;3.50;;;2.23;;
7233;SDS011;3658;47.992;10.158;2022-12-20T05:08:00;5.33;;;2.20;;
7233;SDS011;3658;47.992;10.158;2022-12-20T05:10:27;5.47;;;1.97;;
7233;SDS011;3658;47.992;10.158;2022-12-20T05:12:55;2.93;;;2.47;;
7233;SDS011;3658;47.992;10.158;2022-12-20T05:15:23;5.97;;;1.90;;
7233;SDS011;3658;47.992;10.158;2022-12-20T05:17:51;2.83;;;2.20;;
7233;SDS011;3658;47.992;10.158;2022-12-20T05:20:23;3.87;;;1.87;;
7233;SDS011;3658;47.992;10.158;2022-12-20T05:22:50;2.30;;;2.07;;
7233;SDS011;3658;47.992;10.158;2022-12-20T05:25:36;4.03;;;2.20;;
7233;SDS011;3658;47.992;10.158;2022-12-20T05:28:22;2.77;;;1.70;;
7233;SDS011;3658;47.992;10.158;2022-12-20T05:30:49;2.37;;;1.90;;
7233;SDS011;3658;47.992;10.158;2022-12-20T05:33:17;2.00;;;1.80;;
7233;SDS011;3658;47.992;10.158;2022-12-20T05:35:45;2.30;;;2.00;;
7233;SDS011;3658;47.992;10.158;2022-12-20T05:38:12;2.63;;;1.83;;
7233;SDS011;3658;47.992;10.158;2022-12-20T05:40:39;4.90;;;1.97;;
7233;SDS011;3658;47.992;10.158;2022-12-20T05:43:06;3.37;;;2.00;;
7233;SDS011;3658;47.992;10.158;2022-12-20T05:45:34;3.63;;;1.93;;
7233;SDS011;3658;47.992;10.158;2022-12-20T05:48:00;2.33;;;1.90;;
7233;SDS011;3658;47.992;10.158;2022-12-20T05:50:29;2.60;;;2.10;;
7233;SDS011;3658;47.992;10.158;2022-12-20T05:52:56;2.17;;;1.90;;
7233;SDS011;3658;47.992;10.158;2022-12-20T05:55:23;3.17;;;1.90;;
7233;SDS011;3658;47.992;10.158;2022-12-20T05:57:50;2.33;;;1.90;;
7233;SDS011;3658;47.992;10.158;2022-12-20T06:00:17;2.97;;;1.70;;
7233;SDS011;3658;47.992;10.158;2022-12-20T06:02:44;1.80;;;1.50;;
7233;SDS011;3658;47.992;10.158;2022-12-20T06:05:11;4.70;;;2.07;;
7233;SDS011;3658;47.992;10.158;2022-12-20T06:07:40;2.10;;;1.70;;
7233;SDS011;3658;47.992;10.158;2022-12-20T06:10:08;3.90;;;2.07;;
7233;SDS011;3658;47.992;10.158;2022-12-20T06:12:36;2.00;;;1.80;;
7233;SDS011;3658;47.992;10.158;2022-12-20T06:15:03;2.27;;;1.87;;
7233;SDS011;3658;47.992;10.158;2022-12-20T06:17:30;2.40;;;1.60;;
7233;SDS011;3658;47.992;10.158;2022-12-20T06:19:57;5.67;;;1.90;;
7233;SDS011;3658;47.992;10.158;2022-12-20T06:22:24;2.83;;;1.70;;
7233;SDS011;3658;47.992;10.158;2022-12-20T06:24:53;2.40;;;1.97;;
7233;SDS011;3658;47.992;10.158;2022-12-20T06:27:20;2.63;;;1.57;;
7233;SDS011;3658;47.992;10.158;2022-12-20T06:29:47;3.83;;;1.80;;
7233;SDS011;3658;47.992;10.158;2022-12-20T06:32:18;3.63;;;1.70;;
7233;SDS011;3658;47.992;10.158;2022-12-20T06:34:45;2.87;;;1.53;;
7233;SDS011;3658;47.992;10.158;2022-12-20T06:37:12;1.80;;;1.70;;
7233;SDS011;3658;47.992;10.158;2022-12-20T06:39:42;1.93;;;1.43;;
7233;SDS011;3658;47.992;10.158;2022-12-20T06:42:11;2.63;;;1.70;;
7233;SDS011;3658;47.992;10.158;2022-12-20T06:44:38;3.27;;;1.80;;
7233;SDS011;3658;47.992;10.158;2022-12-20T06:47:04;2.17;;;1.70;;
7233;SDS011;3658;47.992;10.158;2022-12-20T06:49:31;2.53;;;1.70;;
7233;SDS011;3658;47.992;10.158;2022-12-20T06:51:58;3.83;;;1.80;;
7233;SDS011;3658;47.992;10.158;2022-12-20T06:54:25;3.03;;;1.80;;
7233;SDS011;3658;47.992;10.158;2022-12-20T06:56:52;2.53;;;1.70;;
7233;SDS011;3658;47.992;10.158;2022-12-20T06:59:21;1.87;;;1.60;;
7233;SDS011;3658;47.992;10.158;2022-12-20T07:01:47;1.90;;;1.77;;
7233;SDS011;3658;47.992;10.158;2022-12-20T07:04:14;2.40;;;1.70;;
7233;SDS011;3658;47.992;10.158;2022-12-20T07:06:41;1.93;;;1.73;;
7233;SDS011;3658;47.992;10.158;2022-12-20T07:09:08;2.37;;;1.50;;
7233;SDS011;3658;47.992;10.158;2022-12-20T07:11:36;4.07;;;1.83;;
7233;SDS011;3658;47.992;10.158;2022-12-20T07:14:03;1.60;;;1.50;;
7233;SDS011;3658;47.992;10.158;2022-12-20T07:16:31;2.97;;;1.83;;
7233;SDS011;3658;47.992;10.158;2022-12-20T07:18:58;1.77;;;1.60;;
7233;SDS011;3658;47.992;10.158;2022-12-20T07:21:26;2.83;;;1.83;;
7233;SDS011;3658;47.992;10.158;2022-12-20T07:23:53;1.63;;;1.50;;
7233;SDS011;3658;47.992;10.158;2022-12-20T07:26:21;1.70;;;1.60;;
7233;SDS011;3658;47.992;10.158;2022-12-20T07:28:48;1.73;;;1.57;;
7233;SDS011;3658;47.992;10.158;2022-12-20T07:31:15;1.77;;;1.67;;
7233;SDS011;3658;47.992;10.158;2022-12-20T07:33:43;2.17;;;1.70;;
7233;SDS011;3658;47.992;10.158;2022-12-20T07:36:11;1.83;;;1.60;;
7233;SDS011;3658;47.992;10.158;2022-12-20T07:38:40;1.87;;;1.70;;
7233;SDS011;3658;47.992;10.158;2022-12-20T07:41:07;1.60;;;1.50;;
7233;SDS011;3658;47.992;10.158;2022-12-20T07:43:35;2.67;;;1.80;;
7233;SDS011;3658;47.992;10.158;2022-12-20T07:46:02;3.20;;;1.83;;
7233;SDS011;3658;47.992;10.158;2022-12-20T07:48:30;3.10;;;1.60;;
7233;SDS011;3658;47.992;10.158;2022-12-20T07:50:59;1.93;;;1.73;;
7233;SDS011;3658;47.992;10.158;2022-12-20T07:53:30;3.70;;;1.90;;
7233;SDS011;3658;47.992;10.158;2022-12-20T07:55:58;3.33;;;1.90;;
7233;SDS011;3658;47.992;10.158;2022-12-20T07:58:28;1.83;;;1.67;;
7233;SDS011;3658;47.992;10.158;2022-12-20T08:00:56;6.77;;;1.90;;
7233;SDS011;3658;47.992;10.158;2022-12-20T08:03:24;6.30;;;1.90;;
7233;SDS011;3658;47.992;10.158;2022-12-20T08:05:56;4.07;;;1.90;;
7233;SDS011;3658;47.992;10.158;2022-12-20T08:08:28;5.53;;;1.77;;
7233;SDS011;3658;47.992;10.158;2022-12-20T08:10:57;2.33;;;1.70;;
7233;SDS011;3658;47.992;10.158;2022-12-20T08:13:25;1.90;;;1.70;;
7233;SDS011;3658;47.992;10.158;2022-12-20T08:15:52;2.23;;;1.97;;
7233;SDS011;3658;47.992;10.158;2022-12-20T08:18:19;2.07;;;1.87;;
7233;SDS011;3658;47.992;10.158;2022-12-20T08:20:46;2.43;;;1.90;;
7233;SDS011;3658;47.992;10.158;2022-12-20T08:23:15;2.20;;;1.63;;
7233;SDS011;3658;47.992;10.158;2022-12-20T08:25:42;3.03;;;1.70;;
7233;SDS011;3658;47.992;10.158;2022-12-20T08:28:09;2.47;;;1.97;;
7233;SDS011;3658;47.992;10.158;2022-12-20T08:30:36;2.57;;;1.73;;
7233;SDS011;3658;47.992;10.158;2022-12-20T08:33:04;1.63;;;1.53;;
7233;SDS011;3658;47.992;10.158;2022-12-20T08:35:31;2.37;;;1.80;;
7233;SDS011;3658;47.992;10.158;2022-12-20T08:37:58;3.17;;;1.90;;
7233;SDS011;3658;47.992;10.158;2022-12-20T08:40:26;2.00;;;1.80;;
7233;SDS011;3658;47.992;10.158;2022-12-20T08:42:53;1.93;;;1.67;;
7233;SDS011;3658;47.992;10.158;2022-12-20T08:45:20;1.83;;;1.73;;
7233;SDS011;3658;47.992;10.158;2022-12-20T08:47:47;2.07;;;1.87;;
7233;SDS011;3658;47.992;10.158;2022-12-20T08:50:14;2.23;;;2.03;;
7233;SDS011;3658;47.992;10.158;2022-12-20T08:52:41;1.90;;;1.80;;
7233;SDS011;3658;47.992;10.158;2022-12-20T08:55:08;1.87;;;1.70;;
7233;SDS011;3658;47.992;10.158;2022-12-20T08:57:36;3.00;;;1.87;;
7233;SDS011;3658;47.992;10.158;2022-12-20T09:00:03;1.80;;;1.70;;
7233;SDS011;3658;47.992;10.158;2022-12-20T09:02:33;2.03;;;1.90;;
7233;SDS011;3658;47.992;10.158;2022-12-20T09:05:02;2.00;;;1.80;;
7233;SDS011;3658;47.992;10.158;2022-12-20T09:07:29;2.13;;;1.90;;
7233;SDS011;3658;47.992;10.158;2022-12-20T09:09:56;2.00;;;1.80;;
7233;SDS011;3658;47.992;10.158;2022-12-20T09:12:23;2.50;;;1.70;;
7233;SDS011;3658;47.992;10.158;2022-12-20T09:14:51;3.33;;;1.93;;
7233;SDS011;3658;47.992;10.158;2022-12-20T09:17:18;1.67;;;1.57;;
7233;SDS011;3658;47.992;10.158;2022-12-20T09:19:45;2.40;;;1.93;;
7233;SDS011;3658;47.992;10.158;2022-12-20T09:22:12;2.40;;;1.80;;
7233;SDS011;3658;47.992;10.158;2022-12-20T09:24:39;2.33;;;1.90;;
7233;SDS011;3658;47.992;10.158;2022-12-20T09:27:06;2.50;;;1.60;;
7233;SDS011;3658;47.992;10.158;2022-12-20T09:29:33;1.87;;;1.67;;
7233;SDS011;3658;47.992;10.158;2022-12-20T09:32:01;1.60;;;1.50;;
7233;SDS011;3658;47.992;10.158;2022-12-20T09:34:28;1.70;;;1.60;;
7233;SDS011;3658;47.992;10.158;2022-12-20T09:36:55;2.50;;;1.53;;
7233;SDS011;3658;47.992;10.158;2022-12-20T09:39:22;4.40;;;1.70;;
7233;SDS011;3658;47.992;10.158;2022-12-20T09:41:52;5.13;;;1.80;;
7233;SDS011;3658;47.992;10.158;2022-12-20T09:44:22;3.53;;;1.80;;
7233;SDS011;3658;47.992;10.158;2022-12-20T09:46:53;2.00;;;1.60;;
7233;SDS011;3658;47.992;10.158;2022-12-20T09:49:24;2.20;;;1.63;;
7233;SDS011;3658;47.992;10.158;2022-12-20T09:52:00;2.23;;;1.80;;
7233;SDS011;3658;47.992;10.158;2022-12-20T09:54:52;1.90;;;1.60;;
7233;SDS011;3658;47.992;10.158;2022-12-20T09:57:26;5.10;;;1.80;;
7233;SDS011;3658;47.992;10.158;2022-12-20T09:59:56;1.67;;;1.57;;
7233;SDS011;3658;47.992;10.158;2022-12-20T10:02:23;2.03;;;1.53;;
7233;SDS011;3658;47.992;10.158;2022-12-20T10:04:53;3.27;;;1.60;;
7233;SDS011;3658;47.992;10.158;2022-12-20T10:07:24;3.70;;;1.63;;
7233;SDS011;3658;47.992;10.158;2022-12-20T10:10:04;1.40;;;1.30;;
7233;SDS011;3658;47.992;10.158;2022-12-20T10:13:02;2.00;;;1.60;;
7233;SDS011;3658;47.992;10.158;2022-12-20T10:15:39;1.67;;;1.57;;
7233;SDS011;3658;47.992;10.158;2022-12-20T10:18:17;4.33;;;1.70;;
7233;SDS011;3658;47.992;10.158;2022-12-20T10:21:00;1.50;;;1.40;;
7233;SDS011;3658;47.992;10.158;2022-12-20T10:23:35;2.03;;;1.77;;
7233;SDS011;3658;47.992;10.158;2022-12-20T10:26:07;1.43;;;1.33;;
7233;SDS011;3658;47.992;10.158;2022-12-20T10:28:35;3.00;;;1.50;;
7233;SDS011;3658;47.992;10.158;2022-12-20T10:31:04;1.60;;;1.50;;
7233;SDS011;3658;47.992;10.158;2022-12-20T10:33:33;1.57;;;1.47;;
7233;SDS011;3658;47.992;10.158;2022-12-20T10:36:18;1.77;;;1.53;;
7233;SDS011;3658;47.992;10.158;2022-12-20T10:38:47;1.50;;;1.40;;
7233;SDS011;3658;47.992;10.158;2022-12-20T10:41:16;1.90;;;1.50;;
7233;SDS011;3658;47.992;10.158;2022-12-20T10:43:45;3.53;;;1.40;;
7233;SDS011;3658;47.992;10.158;2022-12-20T10:46:14;1.43;;;1.33;;
7233;SDS011;3658;47.992;10.158;2022-12-20T10:48:44;2.60;;;1.40;;
7233;SDS011;3658;47.992;10.158;2022-12-20T10:51:13;1.40;;;1.30;;
7233;SDS011;3658;47.992;10.158;2022-12-20T10:53:53;2.13;;;1.50;;
7233;SDS011;3658;47.992;10.158;2022-12-20T10:56:23;1.50;;;1.40;;
7233;SDS011;3658;47.992;10.158;2022-12-20T10:58:53;1.73;;;1.40;;
7233;SDS011;3658;47.992;10.158;2022-12-20T11:01:23;4.33;;;2.00;;
7233;SDS011;3658;47.992;10.158;2022-12-20T11:03:59;4.53;;;1.60;;
7233;SDS011;3658;47.992;10.158;2022-12-20T11:06:29;3.80;;;1.40;;
7233;SDS011;3658;47.992;10.158;2022-12-20T11:09:22;2.80;;;1.50;;
7233;SDS011;3658;47.992;10.158;2022-12-20T11:11:58;2.37;;;1.60;;
7233;SDS011;3658;47.992;10.158;2022-12-20T11:14:26;1.57;;;1.40;;
7233;SDS011;3658;47.992;10.158;2022-12-20T11:16:54;2.97;;;1.50;;
7233;SDS011;3658;47.992;10.158;2022-12-20T11:19:29;1.40;;;1.30;;
7233;SDS011;3658;47.992;10.158;2022-12-20T11:22:05;2.00;;;1.50;;
7233;SDS011;3658;47.992;10.158;2022-12-20T11:24:44;2.17;;;1.47;;
7233;SDS011;3658;47.992;10.158;2022-12-20T11:27:23;1.70;;;1.60;;
7233;SDS011;3658;47.992;10.158;2022-12-20T11:30:02;1.40;;;1.30;;
7233;SDS011;3658;47.992;10.158;2022-12-20T11:35:57;2.03;;;1.43;;
7233;SDS011;3658;47.992;10.158;2022-12-20T11:38:35;6.60;;;1.80;;
7233;SDS011;3658;47.992;10.158;2022-12-20T11:41:12;2.47;;;1.80;;
7233;SDS011;3658;47.992;10.158;2022-12-20T11:43:55;1.57;;;1.43;;
7233;SDS011;3658;47.992;10.158;2022-12-20T11:46:40;2.50;;;1.50;;
7233;SDS011;3658;47.992;10.158;2022-12-20T11:49:34;2.53;;;1.33;;
7233;SDS011;3658;47.992;10.158;2022-12-20T11:52:17;1.60;;;1.50;;
7233;SDS011;3658;47.992;10.158;2022-12-20T11:54:55;4.00;;;1.80;;
7233;SDS011;3658;47.992;10.158;2022-12-20T11:57:30;6.77;;;1.80;;
7233;SDS011;3658;47.992;10.158;2022-12-20T12:00:04;3.87;;;1.83;;
7233;SDS011;3658;47.992;10.158;2022-12-20T12:02:33;1.80;;;1.40;;
7233;SDS011;3658;47.992;10.158;2022-12-20T12:05:04;3.60;;;1.67;;
7233;SDS011;3658;47.992;10.158;2022-12-20T12:07:33;4.73;;;1.70;;
7233;SDS011;3658;47.992;10.158;2022-12-20T12:10:03;3.73;;;1.40;;
7233;SDS011;3658;47.992;10.158;2022-12-20T12:12:41;2.90;;;1.80;;
7233;SDS011;3658;47.992;10.158;2022-12-20T12:15:15;3.50;;;1.60;;
7233;SDS011;3658;47.992;10.158;2022-12-20T12:17:53;1.73;;;1.40;;
7233;SDS011;3658;47.992;10.158;2022-12-20T12:20:28;5.37;;;1.53;;
7233;SDS011;3658;47.992;10.158;2022-12-20T12:23:00;2.60;;;1.57;;
7233;SDS011;3658;47.992;10.158;2022-12-20T12:25:33;3.83;;;1.60;;
7233;SDS011;3658;47.992;10.158;2022-12-20T12:28:01;2.00;;;1.50;;
7233;SDS011;3658;47.992;10.158;2022-12-20T12:30:34;2.97;;;1.70;;
7233;SDS011;3658;47.992;10.158;2022-12-20T12:33:05;2.03;;;1.43;;
7233;SDS011;3658;47.992;10.158;2022-12-20T12:35:43;2.13;;;1.50;;
7233;SDS011;3658;47.992;10.158;2022-12-20T12:38:34;1.40;;;1.30;;
7233;SDS011;3658;47.992;10.158;2022-12-20T12:44:28;5.07;;;1.77;;
7233;SDS011;3658;47.992;10.158;2022-12-20T12:47:09;1.60;;;1.50;;
7233;SDS011;3658;47.992;10.158;2022-12-20T12:49:41;2.17;;;1.60;;
7233;SDS011;3658;47.992;10.158;2022-12-20T12:52:24;2.17;;;1.80;;
7233;SDS011;3658;47.992;10.158;2022-12-20T13:01:07;2.53;;;1.40;;
7233;SDS011;3658;47.992;10.158;2022-12-20T13:03:39;2.93;;;1.43;;
7233;SDS011;3658;47.992;10.158;2022-12-20T13:09:21;2.93;;;1.60;;
7233;SDS011;3658;47.992;10.158;2022-12-20T13:18:28;1.60;;;1.50;;
7233;SDS011;3658;47.992;10.158;2022-12-20T13:27:24;1.87;;;1.50;;
7233;SDS011;3658;47.992;10.158;2022-12-20T13:30:01;4.50;;;1.80;;
7233;SDS011;3658;47.992;10.158;2022-12-20T13:35:59;1.60;;;1.50;;
7233;SDS011;3658;47.992;10.158;2022-12-20T13:38:51;1.63;;;1.37;;
7233;SDS011;3658;47.992;10.158;2022-12-20T13:41:22;2.20;;;1.63;;
7233;SDS011;3658;47.992;10.158;2022-12-20T13:44:02;2.73;;;1.73;;
7233;SDS011;3658;47.992;10.158;2022-12-20T13:46:50;2.87;;;1.57;;
7233;SDS011;3658;47.992;10.158;2022-12-20T13:49:22;3.60;;;2.10;;
7233;SDS011;3658;47.992;10.158;2022-12-20T13:54:43;2.03;;;1.53;;
7233;SDS011;3658;47.992;10.158;2022-12-20T13:57:13;1.70;;;1.60;;
7233;SDS011;3658;47.992;10.158;2022-12-20T13:59:44;1.93;;;1.70;;
7233;SDS011;3658;47.992;10.158;2022-12-20T14:02:16;2.77;;;2.07;;
7233;SDS011;3658;47.992;10.158;2022-12-20T14:04:47;2.20;;;2.00;;
7233;SDS011;3658;47.992;10.158;2022-12-20T14:07:28;3.90;;;1.90;;
7233;SDS011;3658;47.992;10.158;2022-12-20T14:09:58;2.33;;;1.77;;
7233;SDS011;3658;47.992;10.158;2022-12-20T14:12:26;2.30;;;2.10;;
7233;SDS011;3658;47.992;10.158;2022-12-20T14:14:55;5.40;;;1.87;;
7233;SDS011;3658;47.992;10.158;2022-12-20T14:17:23;8.13;;;2.03;;
7233;SDS011;3658;47.992;10.158;2022-12-20T14:20:02;6.83;;;1.93;;
7233;SDS011;3658;47.992;10.158;2022-12-20T14:22:33;3.93;;;1.80;;
7233;SDS011;3658;47.992;10.158;2022-12-20T14:25:01;7.70;;;2.37;;
7233;SDS011;3658;47.992;10.158;2022-12-20T14:27:32;3.83;;;1.97;;
7233;SDS011;3658;47.992;10.158;2022-12-20T14:30:01;2.33;;;2.10;;
7233;SDS011;3658;47.992;10.158;2022-12-20T14:32:31;2.17;;;1.97;;
7233;SDS011;3658;47.992;10.158;2022-12-20T14:34:58;3.13;;;1.70;;
7233;SDS011;3658;47.992;10.158;2022-12-20T14:37:26;6.10;;;2.30;;
7233;SDS011;3658;47.992;10.158;2022-12-20T14:39:59;5.70;;;2.60;;
7233;SDS011;3658;47.992;10.158;2022-12-20T14:42:28;4.97;;;2.40;;
7233;SDS011;3658;47.992;10.158;2022-12-20T14:45:14;4.47;;;2.27;;
7233;SDS011;3658;47.992;10.158;2022-12-20T14:47:47;6.80;;;2.60;;
7233;SDS011;3658;47.992;10.158;2022-12-20T14:50:16;7.37;;;2.47;;
7233;SDS011;3658;47.992;10.158;2022-12-20T14:52:46;4.30;;;2.30;;
7233;SDS011;3658;47.992;10.158;2022-12-20T14:55:15;6.00;;;2.53;;
7233;SDS011;3658;47.992;10.158;2022-12-20T14:57:45;5.10;;;2.63;;
7233;SDS011;3658;47.992;10.158;2022-12-20T15:00:19;11.93;;;3.27;;
7233;SDS011;3658;47.992;10.158;2022-12-20T15:02:49;6.70;;;2.67;;
7233;SDS011;3658;47.992;10.158;2022-12-20T15:08:13;4.77;;;2.83;;
7233;SDS011;3658;47.992;10.158;2022-12-20T15:10:46;5.07;;;3.13;;
7233;SDS011;3658;47.992;10.158;2022-12-20T15:13:22;5.40;;;2.60;;
7233;SDS011;3658;47.992;10.158;2022-12-20T15:15:53;6.53;;;3.00;;
7233;SDS011;3658;47.992;10.158;2022-12-20T15:18:20;5.13;;;2.90;;
7233;SDS011;3658;47.992;10.158;2022-12-20T15:20:48;3.60;;;2.87;;
7233;SDS011;3658;47.992;10.158;2022-12-20T15:23:23;3.93;;;2.73;;
7233;SDS011;3658;47.992;10.158;2022-12-20T15:25:51;3.30;;;2.60;;
7233;SDS011;3658;47.992;10.158;2022-12-20T15:28:19;4.83;;;3.23;;
7233;SDS011;3658;47.992;10.158;2022-12-20T15:30:48;5.53;;;3.27;;
7233;SDS011;3658;47.992;10.158;2022-12-20T15:33:17;5.70;;;2.83;;
7233;SDS011;3658;47.992;10.158;2022-12-20T15:35:46;4.73;;;2.90;;
7233;SDS011;3658;47.992;10.158;2022-12-20T15:38:14;3.37;;;3.00;;
7233;SDS011;3658;47.992;10.158;2022-12-20T15:40:42;5.33;;;3.03;;
7233;SDS011;3658;47.992;10.158;2022-12-20T15:43:15;3.13;;;2.83;;
7233;SDS011;3658;47.992;10.158;2022-12-20T15:45:47;4.10;;;3.17;;
7233;SDS011;3658;47.992;10.158;2022-12-20T15:48:17;4.20;;;3.07;;
7233;SDS011;3658;47.992;10.158;2022-12-20T15:50:50;4.10;;;3.20;;
7233;SDS011;3658;47.992;10.158;2022-12-20T15:53:20;7.27;;;3.60;;
7233;SDS011;3658;47.992;10.158;2022-12-20T15:55:51;3.43;;;3.13;;
7233;SDS011;3658;47.992;10.158;2022-12-20T15:58:21;3.60;;;2.90;;
7233;SDS011;3658;47.992;10.158;2022-12-20T16:00:49;4.83;;;3.20;;
7233;SDS011;3658;47.992;10.158;2022-12-20T16:03:18;3.67;;;3.30;;